KMHV/MHV METAR and TAF weather

Enter ICAO airport designator
Station Type Date Time Source
KMHV METAR 2019/04/23 00:20 UTC NOAA

KMHV 230020Z AUTO 29017G22KT 10SM FEW110 23/04 A2999 RMK A01


Station Type Date Time Source
KMHV Decoded METAR 2019/04/23 00:20 UTC NOAA

Mojave, CA, United States (KMHV) 35-04N 118-09W
Apr 22, 2019 - 08:20 PM EDT / 2019.04.23 0020 UTC
Wind: from the WNW (290 degrees) at 20 MPH (17 KT) gusting to 25 MPH (22 KT):0
Visibility: 10 mile(s):0
Sky conditions: mostly clear
Temperature: 73 F (23 C)
Dew Point: 39 F (4 C)
Relative Humidity: 28%
Pressure (altimeter): 29.99 in. Hg (1015 hPa)
ob: KMHV 230020Z AUTO 29017G22KT 10SM FEW110 23/04 A2999 RMK A01
cycle: 0

Station Type Date Time Source
KMHV TAF UTC NOAA

Error!

Example: see airport list